Αναφορές METAR Αεροδρομίων

 

LGTS - THESSALONIKI - GREECE
Ενημερώθηκε: 19/02/2018 15:20
Μερικώς νεφελώδης
Μερικώς νεφελώδης
 Ανεμος από Δ
Ανεμος: Δ 15 km/h
Θερμοκρασία: 11°C
Σημείο Δρόσου: 5°C
Υγρασία: 67%
Βαρόμετρο: 1016 hPa
Clouds: Μερικώς νεφελώδης
Visibility: 8 km
Cloud details: Αραιές Νεφώσεις 244 m
Μερικώς νεφελώδης 762 m
2018/02/19 13:20 LGTS 191320Z 26008KT 8000 FEW008 SCT025 11/05 Q1016 NOSIG
LGLR - LARTISA - GREECE
Ενημερώθηκε: 19/02/2018 14:50
Mist, Συννεφιά
Mist, Συννεφιά
 Ανεμος από Α
Ανεμος: Α 15 km/h
Θερμοκρασία: 10°C
Wind Chill: 8°C
Σημείο Δρόσου: 8°C
Υγρασία: 88%
Βαρόμετρο: 1016 hPa
Περίληψη: Mist
Clouds: Συννεφιά
Visibility: 5 km
Cloud details: Μερικώς νεφελώδης 305 m
Συννεφιά 914 m
2018/02/19 12:50 LGLR 191250Z 09008KT 5000 BR SCT010 OVC030 10/08 Q1016 WHT
 
LGKZ - KOZANI - GREECE
Ενημερώθηκε: 19/02/2018 14:50
Light drizzle, Mist, Συννεφιά
Light drizzle, Mist, Συννεφιά
 Ανεμος από ΝΝΑ
Ανεμος: ΝΝΑ 11 km/h
Θερμοκρασία: 7°C
Wind Chill: 5°C
Σημείο Δρόσου: 4°C
Υγρασία: 81%
Βαρόμετρο: 1015 hPa
Περίληψη: Light drizzle, Mist
Clouds: Συννεφιά
Visibility: 5 km
Cloud details: Μερικώς νεφελώδης 244 m
Σχεδόν νεφελώδης 549 m
Συννεφιά 2134 m
2018/02/19 12:50 LGKZ 191250Z 15006KT 5000 -DZ BR SCT008 BKN018 OVC070 07/04 Q1015
LGKV - KAVALA - GREECE
Ενημερώθηκε: 19/02/2018 15:20
Μερικώς νεφελώδης
Μερικώς νεφελώδης
 Ανεμος από ΑΒΑ
Ανεμος: ΑΒΑ 28 km/h
Θερμοκρασία: 11°C
Σημείο Δρόσου: 3°C
Υγρασία: 58%
Βαρόμετρο: 1016 hPa
Clouds: Μερικώς νεφελώδης
Visibility: 10 km
Cloud details: Αραιές Νεφώσεις 762 m
Μερικώς νεφελώδης 2134 m
2018/02/19 13:20 LGKV 191320Z 07015KT 9999 FEW025 SCT070 11/03 Q1016
 
LGIO - IOANNINA - GREECE
Ενημερώθηκε: 19/02/2018 15:20
Σχεδόν νεφελώδης
Σχεδόν νεφελώδης
 Ανεμος από varies
Ανεμος: varies 0 km/h
Θερμοκρασία: 13°C
Σημείο Δρόσου: 3°C
Υγρασία: 51%
Βαρόμετρο: 1011 hPa
Clouds: Σχεδόν νεφελώδης
Visibility: 10 km
Cloud details: Μερικώς νεφελώδης 1219 m
Σχεδόν νεφελώδης 2438 m
2018/02/19 13:20 LGIO 191320Z /////KT 9999 SCT040 BKN080 13/03 Q1011
LGBL - BOLOS - GREECE
Ενημερώθηκε: 19/02/2018 15:20
Ασθενής βροχή, Συννεφιά
Ασθενής βροχή, Συννεφιά
 Ανεμος από ΝΔ
Ανεμος: ΝΔ 6 km/h
Θερμοκρασία: 10°C
Σημείο Δρόσου: 8°C
Υγρασία: 88%
Βαρόμετρο: 1016 hPa
Περίληψη: Ασθενής βροχή
Clouds: Συννεφιά
Visibility: 6 km
Cloud details: Μερικώς νεφελώδης 366 m
Συννεφιά 914 m
2018/02/19 13:20 LGBL 191320Z 23003KT 6000 -RA SCT012 OVC030 10/08 Q1016
 
LGMT - MITILINI - GREECE
Ενημερώθηκε: 19/02/2018 15:20
Αραιές Νεφώσεις
Αραιές Νεφώσεις
 Ανεμος από calm
Ανεμος: Απνοια
Θερμοκρασία: 14°C
Σημείο Δρόσου: 7°C
Υγρασία: 63%
Βαρόμετρο: 1014 hPa
Clouds: Αραιές Νεφώσεις
Visibility: 10 km
Cloud details: Αραιές Νεφώσεις 914 m
2018/02/19 13:20 LGMT 191320Z 00000KT 9999 FEW030 14/07 Q1014
LGAV - ATHENS - GREECE
Ενημερώθηκε: 19/02/2018 15:20
Σχεδόν νεφελώδης
Σχεδόν νεφελώδης
 Ανεμος από ΒΒΑ
Ανεμος: ΒΒΑ 20 km/h
Θερμοκρασία: 11°C
Σημείο Δρόσου: 7°C
Υγρασία: 77%
Βαρόμετρο: 1015 hPa
Clouds: Σχεδόν νεφελώδης
Visibility: 10 km
Cloud details: Αραιές Νεφώσεις 610 m
Μερικώς νεφελώδης 1219 m
Σχεδόν νεφελώδης 2134 m
2018/02/19 13:20 LGAV 191320Z 03011KT 9999 FEW020 SCT040 BKN070 11/07 Q1015 NOSIG
 
LGRP - RODOS - GREECE
Ενημερώθηκε: 19/02/2018 15:20
Αραιές Νεφώσεις
Αραιές Νεφώσεις
 Ανεμος από Δ
Ανεμος: Δ 13 km/h
Θερμοκρασία: 17°C
Σημείο Δρόσου: 11°C
Υγρασία: 68%
Βαρόμετρο: 1013 hPa
Clouds: Αραιές Νεφώσεις
Visibility: 10 km
Cloud details: Αραιές Νεφώσεις 610 m
2018/02/19 13:20 LGRP 191320Z 26007KT 9999 FEW020 17/11 Q1013 NOSIG
LGIR - HRAKLIO/KRITI - GREECE
Ενημερώθηκε: 19/02/2018 15:20
Σχεδόν νεφελώδης
Σχεδόν νεφελώδης
 Ανεμος από ΒΒΔ
Ανεμος: ΒΒΔ 9 km/h
Θερμοκρασία: 15°C
Σημείο Δρόσου: 10°C
Υγρασία: 72%
Βαρόμετρο: 1013 hPa
Clouds: Σχεδόν νεφελώδης
Visibility: 10 km
Cloud details: Αραιές Νεφώσεις 610 m
Σχεδόν νεφελώδης 2743 m
2018/02/19 13:20 LGIR 191320Z 34005KT 9999 FEW020 BKN090 15/10 Q1013 NOSIG
 
LGMK - MIKONOS - GREECE
Ενημερώθηκε: 19/02/2018 15:20
Αραιές Νεφώσεις
Αραιές Νεφώσεις
 Ανεμος από ΒΒΔ
Ανεμος: ΒΒΔ 20 km/h
Θερμοκρασία: 14°C
Σημείο Δρόσου: 7°C
Υγρασία: 63%
Βαρόμετρο: 1014 hPa
Clouds: Αραιές Νεφώσεις
Visibility: 10 km
Cloud details: Αραιές Νεφώσεις 610 m
2018/02/19 13:20 LGMK 191320Z 34011KT 9999 FEW020 14/07 Q1014
LGKR - KERKIRA - GREECE
Ενημερώθηκε: 19/02/2018 15:20
Αραιές Νεφώσεις
Αραιές Νεφώσεις
 Ανεμος από Ν
Ανεμος: Ν 15 km/h
Θερμοκρασία: 14°C
Σημείο Δρόσου: 7°C
Υγρασία: 63%
Βαρόμετρο: 1012 hPa
Clouds: Αραιές Νεφώσεις
Visibility: 10 km
Cloud details: Αραιές Νεφώσεις 1219 m
2018/02/19 13:20 LGKR 191320Z 18008KT 9999 FEW040 14/07 Q1012 NOSIG